Bonnefoy, France

12:00 AM CET on November 20, 2019 (GMT +0100)
Toulouse - Borderouge | | Change Station

Elev 450 ft 43.65 °N, 1.44 °E | Updated 42 seconds ago

Clear
Clear
38.3 °F
Feels Like 38 °F
N
0
Wind Variable Wind from ENE
Gusts 0.0 mph

Today
High -- | Low -- °F
--% Chance of Precip.
Yesterday
High -- | Low -- °F
Precip. -- in
Pressure 29.95 in
Visibility 3.1 miles
Clouds
Windchill 38 °F
Dew Point 30 °F
Humidity 73%
Rainfall 0.00 in
Snow Depth Not available.
7:53 AM 5:25 PM
Waning Gibbous, 49% visible
METAR LFBO 192230Z AUTO 16003KT 5000 BR NSC 02/01 Q1014 TEMPO 0300 FG VV///
Pressure 29.95 in
Visibility 3.1 miles
Clouds
Windchill 38 °F
Dew Point 30 °F
Humidity 73%
Rainfall 0.00 in
Snow Depth Not available.
7:53 AM 5:25 PM
Waning Gibbous, 49% visible
METAR LFBO 192230Z AUTO 16003KT 5000 BR NSC 02/01 Q1014 TEMPO 0300 FG VV///

Get Severe Weather Alerts

Thanks for signing up!

Be on the lookout for a verification email in your inbox.

You'll start receiving the daily forecast at 6 AM.

×

10-Day Weather Forecast

×

Almanac

Astronomy

Nov. 20, 2019 Rise Set
Actual Time
Civil Twilight
Nautical Twilight
Astronomical Twilight
Moon
Length of Visible Light
Length of Day
Tomorrow will be .
, % of the Moon is Illuminated

Today's Extremes

Country Highs Country Lows

Community

WunderPhotos

Category 6

Welcome to Category 6. This is the collective home for Weather Underground's featured writeups by Dr. Jeff Masters (right), Bob Henson (left), Chris Burt, and other regular contributors.

Nearby

Air Quality

  Air Quality AQ Index Pollutant
Not available.

Snow Depth

Station Depth Elevation

Earthquake Activity

City Distance Mag. Time & Date
Minimum magnitude displayed is 2.5.

Coastal Water Temperatures

Place Temperature

Stations

Nearby Weather Stations

Station Location Temp. Windchill Dew Point Humidity Wind Precip. Elev Updated Type